Main page
METAR-TAF:

METAR-TAF

Airports :

Sharm El Sheikh International Airport

Sharm el-Sheikh, Egypt

latitude: 27-58N, longitude: 034-23E, elevation: 50 m

Current weather observation

The report was made 37 minutes ago, at 11:00 UTC
Wind 13 kt from the North/Northeast
Temperature 26°C
Humidity 45%
Pressure 1014 hPa
Visibility 10 km or more
no clouds below 1500 m and no cumulonimbus

METAR: HESH 031100Z 03013KT CAVOK 26/13 Q1014 NOSIG

Time: 13:37 (11:37 UTC)

Forecast

The report was made 6 hours and 37 minutes ago, at 05:00 UTC
Forecast valid from 03 at 06 UTC to 04 at 12 UTC
Wind 14 kt from the North/Northeast
Visibility 10 km or more
no clouds below 1500 m and no cumulonimbus

TAF: HESH 030500Z 0306/0412 02014KT CAVOK

Weather observations and forecasts of more than 4000 airports (METAR and TAF reports).

The available stations are represented by yellow and red dots on the map.

Hover mouse over dot to see the name of the station.

Then click to see weather observations and forecasts.

To change the map : click on the green buttons with a black cross to zoom in, on the green button with a dash to zoom out, or on the green arrows for adjacent maps.


METAR-TAF: